createdAt,value
2019-04-26T00:02:01.540Z,5.62
2019-04-26T00:04:30.432Z,1.82
2019-04-26T00:07:05.260Z,1.10
2019-04-26T00:09:38.977Z,2.25
2019-04-26T00:12:28.178Z,3.70
2019-04-26T00:15:12.449Z,1.37
2019-04-26T00:17:44.396Z,2.30
2019-04-26T00:20:13.072Z,1.15
2019-04-26T00:22:43.576Z,3.17
2019-04-26T00:25:12.469Z,1.95
2019-04-26T00:27:41.133Z,2.30
2019-04-26T00:30:12.097Z,2.98
2019-04-26T00:32:46.308Z,0.68
2019-04-26T00:35:16.513Z,4.00
2019-04-26T00:37:47.814Z,2.02
2019-04-26T00:40:16.523Z,2.17
2019-04-26T00:42:47.883Z,3.12
2019-04-26T00:45:19.398Z,1.80
2019-04-26T00:47:51.621Z,0.60
2019-04-26T00:50:21.299Z,2.50
2019-04-26T00:52:51.643Z,1.62
2019-04-26T00:55:21.949Z,2.20
2019-04-26T00:57:51.287Z,1.85
2019-04-26T01:00:19.951Z,1.77
2019-04-26T01:02:55.840Z,1.77
2019-04-26T01:05:25.244Z,1.12
2019-04-26T01:10:47.410Z,1.92
2019-04-26T01:13:16.440Z,3.25
2019-04-26T01:15:45.736Z,1.25
2019-04-26T01:18:18.655Z,2.05
2019-04-26T01:20:50.415Z,3.15
2019-04-26T01:23:21.220Z,2.02
2019-04-26T01:26:21.063Z,1.80
2019-04-26T01:29:11.314Z,2.30
2019-04-26T01:32:03.653Z,1.85
2019-04-26T01:34:38.054Z,1.40
2019-04-26T01:37:19.220Z,1.12
2019-04-26T01:39:53.003Z,1.42
2019-04-26T01:42:29.177Z,1.67
2019-04-26T01:45:15.656Z,1.32
2019-04-26T01:47:52.662Z,2.37
2019-04-26T01:50:25.244Z,1.50
2019-04-26T01:52:57.061Z,2.70
2019-04-26T01:55:29.179Z,1.90
2019-04-26T01:58:23.238Z,3.42
2019-04-26T02:00:56.278Z,5.37
2019-04-26T02:03:29.837Z,4.17
2019-04-26T02:05:58.848Z,5.08
2019-04-26T02:08:28.271Z,3.83
2019-04-26T02:10:59.085Z,3.98
2019-04-26T02:13:28.913Z,4.60
2019-04-26T02:15:57.517Z,4.37
2019-04-26T02:18:29.406Z,7.00
2019-04-26T02:21:24.608Z,4.30
2019-04-26T02:23:56.491Z,5.85
2019-04-26T02:26:43.224Z,4.37
2019-04-26T02:29:14.884Z,6.12
2019-04-26T02:31:48.747Z,6.25
2019-04-26T02:34:17.587Z,5.28
2019-04-26T02:36:57.622Z,3.92
2019-04-26T02:39:23.117Z,6.15
2019-04-26T02:42:14.196Z,4.05
2019-04-26T02:44:49.291Z,4.60
2019-04-26T02:47:40.378Z,4.53
2019-04-26T02:50:13.695Z,4.50
2019-04-26T02:53:02.703Z,7.00
2019-04-26T02:56:09.189Z,4.22
2019-04-26T02:58:40.829Z,4.83
2019-04-26T03:01:17.677Z,6.20
2019-04-26T03:03:41.477Z,3.47
2019-04-26T03:06:10.294Z,5.70
2019-04-26T03:08:42.842Z,4.50
2019-04-26T03:11:17.231Z,6.75
2019-04-26T03:13:50.231Z,4.25
2019-04-26T03:16:39.245Z,4.78
2019-04-26T03:19:12.873Z,4.42
2019-04-26T03:22:00.878Z,5.80
2019-04-26T03:27:39.346Z,5.25
2019-04-26T03:30:42.378Z,5.30
2019-04-26T03:33:20.167Z,9.00
2019-04-26T03:36:15.255Z,7.10
2019-04-26T03:42:19.346Z,9.05
2019-04-26T03:45:07.110Z,8.93
2019-04-26T03:47:41.984Z,6.85
2019-04-26T03:50:18.259Z,5.90
2019-04-26T03:56:09.447Z,6.00
2019-04-26T03:58:59.242Z,6.65
2019-04-26T04:01:32.449Z,7.53
2019-04-26T04:07:04.832Z,8.95
2019-04-26T04:09:35.890Z,9.98
2019-04-26T04:12:22.185Z,9.13
2019-04-26T04:17:50.216Z,8.25
2019-04-26T04:20:59.319Z,8.58
2019-04-26T04:23:33.705Z,8.73
2019-04-26T04:26:05.382Z,6.22
2019-04-26T04:28:53.162Z,8.13
2019-04-26T04:32:03.678Z,8.78
2019-04-26T04:34:42.083Z,7.92
2019-04-26T04:37:15.570Z,7.85
2019-04-26T04:40:09.419Z,9.80
2019-04-26T04:43:04.239Z,8.88
2019-04-26T04:46:07.346Z,8.48
2019-04-26T04:48:50.738Z,8.43
2019-04-26T04:51:57.387Z,7.80
2019-04-26T04:55:06.669Z,7.75
2019-04-26T05:01:13.008Z,6.67
2019-04-26T05:03:56.322Z,6.90
2019-04-26T05:06:53.497Z,6.50
2019-04-26T05:12:30.800Z,6.12
2019-04-26T05:18:38.270Z,5.35
2019-04-26T05:21:20.555Z,6.95
2019-04-26T05:24:13.267Z,5.45
2019-04-26T05:26:52.079Z,3.83
2019-04-26T05:29:42.055Z,3.17
2019-04-26T05:35:41.814Z,3.60
2019-04-26T05:38:32.957Z,2.95
2019-04-26T05:41:45.878Z,3.70
2019-04-26T05:44:43.501Z,3.10
2019-04-26T05:48:04.251Z,2.30
2019-04-26T05:50:35.861Z,3.33
2019-04-26T05:53:34.468Z,4.47
2019-04-26T05:59:18.476Z,3.62
2019-04-26T06:02:18.628Z,6.58
2019-04-26T06:05:19.019Z,7.22
2019-04-26T06:07:58.524Z,5.50
2019-04-26T06:10:43.622Z,5.50
2019-04-26T06:13:47.887Z,5.28
2019-04-26T06:16:57.648Z,5.92
2019-04-26T06:20:02.552Z,7.62
2019-04-26T06:23:08.729Z,6.45
2019-04-26T06:25:46.773Z,7.05
2019-04-26T06:28:37.499Z,6.42
2019-04-26T06:31:14.517Z,6.90
2019-04-26T06:33:51.748Z,6.17
2019-04-26T06:36:24.803Z,7.20
2019-04-26T06:39:21.585Z,8.45
2019-04-26T06:42:11.372Z,7.55
2019-04-26T06:48:03.936Z,7.33
2019-04-26T06:50:52.124Z,8.03
2019-04-26T06:57:15.336Z,9.45
2019-04-26T07:00:09.758Z,7.43
2019-04-26T07:03:08.061Z,7.70
2019-04-26T07:05:42.799Z,7.33
2019-04-26T07:08:59.389Z,8.50
2019-04-26T07:11:57.100Z,13.68
2019-04-26T07:17:47.817Z,8.53
2019-04-26T07:20:19.601Z,8.65
2019-04-26T07:26:25.312Z,7.28
2019-04-26T07:29:18.696Z,9.33
2019-04-26T07:32:14.698Z,8.48
2019-04-26T07:38:19.353Z,7.87
2019-04-26T07:41:15.969Z,6.62
2019-04-26T07:47:24.519Z,10.58
2019-04-26T07:50:18.563Z,7.83
2019-04-26T07:53:05.469Z,9.70
2019-04-26T07:59:30.252Z,7.55
2019-04-26T08:02:23.176Z,7.33
2019-04-26T08:05:03.309Z,8.03
2019-04-26T08:07:38.287Z,7.58
2019-04-26T08:10:16.111Z,9.90
2019-04-26T08:12:49.043Z,10.90
2019-04-26T08:15:38.992Z,8.83
2019-04-26T08:18:15.270Z,8.95
2019-04-26T08:20:50.598Z,7.97
2019-04-26T08:23:39.513Z,9.00
2019-04-26T08:26:02.684Z,10.60
2019-04-26T08:28:37.719Z,9.65
2019-04-26T08:31:09.472Z,10.48
2019-04-26T08:33:49.893Z,8.73
2019-04-26T08:36:23.309Z,9.28
2019-04-26T08:38:54.181Z,11.95
2019-04-26T08:41:25.678Z,8.30
2019-04-26T08:44:21.407Z,8.30
2019-04-26T08:46:56.953Z,8.63
2019-04-26T08:49:30.916Z,8.65
2019-04-26T08:52:13.699Z,10.20
2019-04-26T08:57:28.046Z,8.45
2019-04-26T09:00:06.636Z,10.55
2019-04-26T09:02:39.495Z,7.65
2019-04-26T09:05:34.088Z,9.70
2019-04-26T09:08:08.220Z,20.50
2019-04-26T09:10:48.711Z,9.63
2019-04-26T09:13:25.303Z,9.68
2019-04-26T09:16:13.712Z,9.40
2019-04-26T09:18:53.121Z,9.60
2019-04-26T09:21:24.751Z,9.03
2019-04-26T09:24:14.308Z,13.60
2019-04-26T09:26:46.681Z,9.35
2019-04-26T09:29:35.776Z,10.38
2019-04-26T09:32:12.135Z,9.60
2019-04-26T09:34:43.889Z,6.53
2019-04-26T09:37:14.149Z,6.30
2019-04-26T09:39:48.761Z,6.15
2019-04-26T09:42:32.019Z,7.78
2019-04-26T09:45:18.788Z,7.35
2019-04-26T09:48:10.684Z,7.62
2019-04-26T09:50:42.536Z,7.03
2019-04-26T09:53:17.561Z,6.65
2019-04-26T09:55:54.778Z,8.70
2019-04-26T09:58:26.924Z,6.15
2019-04-26T10:01:00.234Z,6.47
2019-04-26T10:03:38.084Z,9.85
2019-04-26T10:06:19.525Z,5.28
2019-04-26T10:08:53.412Z,8.63
2019-04-26T10:11:31.498Z,4.62
2019-04-26T10:14:01.943Z,6.53
2019-04-26T10:16:46.305Z,8.25
2019-04-26T10:19:17.674Z,6.45
2019-04-26T10:21:52.416Z,5.50
2019-04-26T10:24:29.681Z,5.53
2019-04-26T10:27:05.453Z,4.22
2019-04-26T10:29:34.304Z,5.35
2019-04-26T10:32:10.023Z,4.67
2019-04-26T10:34:42.807Z,6.87
2019-04-26T10:37:39.145Z,4.72
2019-04-26T10:40:05.199Z,4.22
2019-04-26T10:42:37.140Z,3.83
2019-04-26T10:45:16.304Z,9.30
2019-04-26T10:47:50.712Z,4.78
2019-04-26T10:50:32.915Z,3.77
2019-04-26T10:53:02.632Z,5.92
2019-04-26T10:55:51.895Z,5.00
2019-04-26T10:58:26.923Z,7.05
2019-04-26T11:01:10.976Z,4.60
2019-04-26T11:03:48.871Z,5.47
2019-04-26T11:06:29.060Z,4.80
2019-04-26T11:09:00.837Z,5.70
2019-04-26T11:11:39.590Z,3.98
2019-04-26T11:14:24.458Z,4.08
2019-04-26T11:16:56.997Z,4.05
2019-04-26T11:19:36.603Z,5.17
2019-04-26T11:22:29.174Z,3.62
2019-04-26T11:24:53.898Z,4.67
2019-04-26T11:27:21.267Z,4.80
2019-04-26T11:29:54.083Z,3.80
2019-04-26T11:32:24.902Z,5.78
2019-04-26T11:34:54.560Z,3.67
2019-04-26T11:37:35.581Z,6.12
2019-04-26T11:40:10.249Z,3.40
2019-04-26T11:42:41.847Z,5.03
2019-04-26T11:45:14.763Z,3.15
2019-04-26T11:47:55.831Z,3.05
2019-04-26T11:50:21.096Z,2.90
2019-04-26T11:52:56.098Z,3.08
2019-04-26T11:55:25.333Z,3.00
2019-04-26T11:57:57.416Z,3.72
2019-04-26T12:00:27.932Z,4.08
2019-04-26T12:02:59.777Z,3.77
2019-04-26T12:08:41.404Z,3.50
2019-04-26T12:11:18.279Z,3.40
2019-04-26T12:13:46.211Z,4.47
2019-04-26T12:16:18.877Z,4.47
2019-04-26T12:18:52.566Z,3.90
2019-04-26T12:21:22.716Z,4.17
2019-04-26T12:23:54.923Z,4.60
2019-04-26T12:26:27.457Z,6.55
2019-04-26T12:28:59.447Z,4.30
2019-04-26T12:31:29.541Z,3.77
2019-04-26T12:34:00.077Z,4.75
2019-04-26T12:36:53.052Z,6.55
2019-04-26T12:39:25.111Z,5.67
2019-04-26T12:41:59.623Z,5.53
2019-04-26T12:44:39.130Z,4.28
2019-04-26T12:47:20.967Z,4.50
2019-04-26T12:49:54.534Z,3.77
2019-04-26T12:52:31.031Z,4.05
2019-04-26T12:55:04.257Z,4.55
2019-04-26T12:57:36.589Z,4.62
2019-04-26T13:00:08.255Z,5.55
2019-04-26T13:02:50.247Z,4.90
2019-04-26T13:05:18.976Z,4.62
2019-04-26T13:07:49.703Z,5.28
2019-04-26T13:13:32.497Z,5.45
2019-04-26T13:16:07.155Z,4.62
2019-04-26T13:18:41.222Z,3.20
2019-04-26T13:21:10.441Z,4.67
2019-04-26T13:23:50.990Z,4.40
2019-04-26T13:26:30.328Z,3.20
2019-04-26T13:29:01.205Z,4.42
2019-04-26T13:31:34.183Z,4.47
2019-04-26T13:34:04.625Z,5.60
2019-04-26T13:36:35.510Z,5.30
2019-04-26T13:39:17.925Z,3.80
2019-04-26T13:42:02.944Z,5.65
2019-04-26T13:44:44.381Z,3.42
2019-04-26T13:47:18.887Z,5.00
2019-04-26T13:50:07.325Z,4.90
2019-04-26T13:52:37.468Z,4.28
2019-04-26T13:55:07.623Z,7.60
2019-04-26T13:57:44.451Z,5.33
2019-04-26T14:00:25.058Z,3.42
2019-04-26T14:03:03.875Z,3.85
2019-04-26T14:05:37.611Z,4.03
2019-04-26T14:08:29.672Z,5.20
2019-04-26T14:11:04.185Z,3.87
2019-04-26T14:13:38.718Z,3.52
2019-04-26T14:16:21.257Z,4.97
2019-04-26T14:18:53.578Z,5.83
2019-04-26T14:21:33.185Z,6.37
2019-04-26T14:24:24.068Z,6.50
2019-04-26T14:27:03.820Z,4.90
2019-04-26T14:29:39.754Z,13.90
2019-04-26T14:32:13.962Z,5.92
2019-04-26T14:34:48.141Z,4.60
2019-04-26T14:37:18.285Z,3.45
2019-04-26T14:39:51.131Z,3.12
2019-04-26T14:42:33.092Z,4.25
2019-04-26T14:45:02.308Z,5.72
2019-04-26T14:47:46.805Z,3.75
2019-04-26T14:50:13.972Z,5.58
2019-04-26T14:52:47.405Z,4.03
2019-04-26T14:55:16.500Z,6.83
2019-04-26T14:57:53.998Z,4.75
2019-04-26T15:00:31.319Z,8.97
2019-04-26T15:03:12.332Z,6.37
2019-04-26T15:05:55.571Z,4.58
2019-04-26T15:08:27.339Z,6.22
2019-04-26T15:11:03.943Z,4.40
2019-04-26T15:13:40.313Z,7.92
2019-04-26T15:16:10.411Z,4.70
2019-04-26T15:18:37.486Z,5.72
2019-04-26T15:21:12.890Z,7.05
2019-04-26T15:23:47.223Z,4.58
2019-04-26T15:26:27.432Z,7.90
2019-04-26T15:28:55.246Z,6.40
2019-04-26T15:31:25.772Z,5.60
2019-04-26T15:33:56.025Z,6.90
2019-04-26T15:36:25.227Z,7.28
2019-04-26T15:39:33.129Z,7.62
2019-04-26T15:42:06.891Z,6.65
2019-04-26T15:47:52.439Z,6.17
2019-04-26T15:50:27.811Z,10.15
2019-04-26T15:52:56.897Z,8.25
2019-04-26T15:55:33.796Z,8.45
2019-04-26T15:58:08.218Z,9.40
2019-04-26T16:00:32.732Z,7.33
2019-04-26T16:03:07.526Z,8.78
2019-04-26T16:05:40.745Z,9.00
2019-04-26T16:08:14.093Z,9.90
2019-04-26T16:10:45.952Z,10.98
2019-04-26T16:13:24.474Z,8.45
2019-04-26T16:15:54.690Z,7.55
2019-04-26T16:18:44.112Z,7.45
2019-04-26T16:21:17.980Z,9.45
2019-04-26T16:23:53.659Z,13.48
2019-04-26T16:26:18.896Z,23.55
2019-04-26T16:28:51.753Z,14.13
2019-04-26T16:31:25.805Z,9.68
2019-04-26T16:34:11.777Z,9.95
2019-04-26T16:36:45.232Z,61.58
2019-04-26T16:39:23.306Z,103.70
2019-04-26T16:41:59.280Z,26.95
2019-04-26T16:44:36.665Z,15.05
2019-04-26T16:47:06.078Z,19.02
2019-04-26T16:49:46.229Z,21.10
2019-04-26T16:52:43.549Z,37.42
2019-04-26T16:55:21.402Z,18.98
2019-04-26T16:57:57.959Z,13.80
2019-04-26T17:00:48.248Z,12.60
2019-04-26T17:03:07.535Z,13.10
2019-04-26T17:05:47.547Z,11.78
2019-04-26T17:08:10.389Z,12.40
2019-04-26T17:10:46.970Z,12.30
2019-04-26T17:15:43.345Z,10.55
2019-04-26T17:18:19.336Z,11.60
2019-04-26T17:20:48.177Z,14.43
2019-04-26T17:23:36.177Z,15.35
2019-04-26T17:28:56.214Z,15.18
2019-04-26T17:31:26.519Z,12.45
2019-04-26T17:33:57.375Z,12.78
2019-04-26T17:36:28.925Z,12.25
2019-04-26T17:41:28.480Z,12.85
2019-04-26T17:44:10.524Z,13.83
2019-04-26T17:46:37.206Z,12.58
2019-04-26T17:51:46.568Z,12.35
2019-04-26T17:54:40.749Z,11.28
2019-04-26T17:56:57.562Z,10.65
2019-04-26T17:59:33.485Z,12.00
2019-04-26T18:02:00.774Z,14.50
2019-04-26T18:04:35.926Z,8.80
2019-04-26T18:07:03.714Z,10.13
2019-04-26T18:09:45.802Z,10.70
2019-04-26T18:12:03.653Z,13.75
2019-04-26T18:14:35.400Z,15.50
2019-04-26T18:17:05.731Z,12.50
2019-04-26T18:19:44.387Z,12.82
2019-04-26T18:22:17.940Z,12.10
2019-04-26T18:24:50.630Z,13.50
2019-04-26T18:27:23.992Z,13.03
2019-04-26T18:29:59.844Z,13.58
2019-04-26T18:32:33.947Z,15.30
2019-04-26T18:35:01.287Z,16.37
2019-04-26T18:37:31.402Z,13.93
2019-04-26T18:40:04.580Z,16.87
2019-04-26T18:42:37.463Z,12.60
2019-04-26T18:45:30.039Z,13.72
2019-04-26T18:48:01.111Z,11.65
2019-04-26T18:50:36.508Z,15.65
2019-04-26T18:53:14.000Z,15.00
2019-04-26T18:55:47.611Z,14.93
2019-04-26T18:58:16.617Z,14.75
2019-04-26T19:00:53.116Z,20.10
2019-04-26T19:03:19.799Z,15.20
2019-04-26T19:05:50.197Z,17.55
2019-04-26T19:08:20.889Z,14.65
2019-04-26T19:11:00.451Z,21.87
2019-04-26T19:13:24.484Z,19.80
2019-04-26T19:16:03.032Z,21.27
2019-04-26T19:18:45.366Z,22.07
2019-04-26T19:21:28.022Z,19.67
2019-04-26T19:24:07.473Z,23.62
2019-04-26T19:26:34.982Z,23.07
2019-04-26T19:29:18.175Z,23.70
2019-04-26T19:32:06.269Z,23.98
2019-04-26T19:34:38.104Z,20.37
2019-04-26T19:37:09.965Z,23.15
2019-04-26T19:39:40.164Z,24.18
2019-04-26T19:42:08.886Z,20.57
2019-04-26T19:44:39.195Z,19.48
2019-04-26T19:47:12.334Z,22.20
2019-04-26T19:56:06.898Z,20.43
2019-04-26T19:58:42.004Z,19.80
2019-04-26T20:01:12.259Z,22.98
2019-04-26T20:03:47.375Z,22.40
2019-04-26T20:06:18.734Z,23.85
2019-04-26T20:08:49.708Z,24.67
2019-04-26T20:14:12.315Z,21.50
2019-04-26T20:16:43.626Z,19.67
2019-04-26T20:19:17.860Z,22.35
2019-04-26T20:21:49.749Z,20.85
2019-04-26T20:24:21.566Z,21.73
2019-04-26T20:26:52.402Z,21.12
2019-04-26T20:29:23.194Z,20.82
2019-04-26T20:34:37.303Z,18.73
2019-04-26T20:37:07.990Z,20.23
2019-04-26T20:39:37.010Z,18.25
2019-04-26T20:42:07.534Z,21.25
2019-04-26T20:44:50.248Z,19.90
2019-04-26T20:47:14.306Z,21.02
2019-04-26T20:49:49.598Z,19.00
2019-04-26T20:52:16.488Z,17.77
2019-04-26T20:54:51.209Z,17.75
2019-04-26T20:57:26.613Z,18.80
2019-04-26T21:00:03.317Z,19.67
2019-04-26T21:02:34.758Z,18.00
2019-04-26T21:05:06.174Z,19.95
2019-04-26T21:07:35.634Z,20.92
2019-04-26T21:10:06.240Z,16.65
2019-04-26T21:12:34.902Z,16.05
2019-04-26T21:15:04.628Z,15.50
2019-04-26T21:17:41.630Z,19.12
2019-04-26T21:20:13.050Z,18.52
2019-04-26T21:22:46.198Z,18.85
2019-04-26T21:25:16.411Z,17.57
2019-04-26T21:27:46.639Z,16.25
2019-04-26T21:30:33.583Z,18.50
2019-04-26T21:33:08.024Z,18.90
2019-04-26T21:36:01.942Z,18.55
2019-04-26T21:38:37.119Z,22.37
2019-04-26T21:41:14.511Z,23.40
2019-04-26T21:46:19.235Z,23.70
2019-04-26T21:48:53.514Z,24.40
2019-04-26T21:51:34.102Z,21.52
2019-04-26T21:54:04.473Z,22.13
2019-04-26T21:56:42.743Z,23.77
2019-04-26T21:59:11.706Z,23.85
2019-04-26T22:01:40.829Z,20.20
2019-04-26T22:04:10.953Z,23.85
2019-04-26T22:06:44.103Z,25.65
2019-04-26T22:09:40.484Z,23.60
2019-04-26T22:12:13.436Z,32.15
2019-04-26T22:14:50.487Z,28.20
2019-04-26T22:17:29.042Z,20.40
2019-04-26T22:20:18.622Z,26.20
2019-04-26T22:25:33.240Z,21.02
2019-04-26T22:28:03.439Z,26.62
2019-04-26T22:30:42.308Z,26.97
2019-04-26T22:33:13.690Z,24.07
2019-04-26T22:35:45.219Z,27.75
2019-04-26T22:38:37.733Z,25.17
2019-04-26T22:41:13.108Z,24.37
2019-04-26T22:44:06.343Z,21.75
2019-04-26T22:47:03.489Z,28.42
2019-04-26T22:49:35.025Z,29.42
2019-04-26T22:52:01.043Z,30.45
2019-04-26T22:54:31.322Z,30.32
2019-04-26T22:57:08.198Z,28.15
2019-04-26T22:59:38.241Z,29.18
2019-04-26T23:02:18.210Z,24.50
2019-04-26T23:04:45.303Z,26.82
2019-04-26T23:07:26.944Z,22.13
2019-04-26T23:10:04.229Z,24.67
2019-04-26T23:15:33.510Z,32.75
2019-04-26T23:18:20.074Z,31.93
2019-04-26T23:20:50.288Z,34.00
2019-04-26T23:23:23.612Z,35.60
2019-04-26T23:26:02.318Z,31.90
2019-04-26T23:28:37.034Z,30.52
2019-04-26T23:31:08.323Z,36.75
2019-04-26T23:33:37.905Z,30.97
2019-04-26T23:36:10.875Z,36.23
2019-04-26T23:38:41.263Z,27.65
2019-04-26T23:41:15.736Z,32.75
2019-04-26T23:43:54.338Z,34.48
2019-04-26T23:46:25.958Z,36.48
2019-04-26T23:48:53.859Z,38.23
2019-04-26T23:51:33.958Z,38.78
2019-04-26T23:53:57.849Z,42.58
2019-04-26T23:56:28.207Z,36.68
2019-04-26T23:58:58.614Z,33.38
